WetterOnline ( https://www.wetteronline.de )

Wetter aktuell Merzig-Wadern

Aktuelles Wetter: Berus (367m)

6-stündlich | Neueste Meldungen
Ortszeit Temperatur Wetter
Sa, 21.05. 2:00 11.4° C bewölkt
Fr, 20.05. 20:00 17.6° C bewölkt
Fr, 20.05. 14:00 25.1° C leicht bewölkt
Fr, 20.05. 8:00 18.7° C bewölkt
Fr, 20.05. 2:00 17.5° C wolkig
Do, 19.05. 20:00 26.0° C wolkig
Do, 19.05. 14:00 26.9° C leicht bewölkt
Do, 19.05. 8:00 18.2° C leicht bewölkt
Ortszeit Temperatur Wetter
Sa, 21.05. 2:00 11.4° C bewölkt
Sa, 21.05. 1:50 11.4° C bewölkt
Sa, 21.05. 1:40 11.6° C bewölkt
Sa, 21.05. 1:30 11.6° C bewölkt
Sa, 21.05. 1:20 11.6° C bewölkt
Sa, 21.05. 1:10 11.6° C bewölkt
Sa, 21.05. 1:00 12.0° C bewölkt
Sa, 21.05. 0:30 12.4° C bewölkt
Sa, 21.05. 0:00 13.0° C wolkig
Fr, 20.05. 23:30 13.5° C wolkenlos
Fr, 20.05. 23:00 14.5° C fast wolkenlos
Ortszeit Relative Feuchte Sichtweite
Sa, 21.05. 2:00 89% 45 km
Fr, 20.05. 20:00 96% 22 km
Fr, 20.05. 14:00 51% 60 km
Fr, 20.05. 8:00 78% 35 km
Fr, 20.05. 2:00 89% 40 km
Do, 19.05. 20:00 54% 65 km
Do, 19.05. 14:00 54% 55 km
Do, 19.05. 8:00 64% 60 km
Ortszeit Relative Feuchte Sichtweite
Sa, 21.05. 2:00 89% 45 km
Sa, 21.05. 1:50 89% -
Sa, 21.05. 1:40 87% -
Sa, 21.05. 1:30 86% 45 km
Sa, 21.05. 1:20 86% -
Sa, 21.05. 1:10 87% -
Sa, 21.05. 1:00 86% 50 km
Sa, 21.05. 0:30 86% 55 km
Sa, 21.05. 0:00 86% 45 km
Fr, 20.05. 23:30 89% 35 km
Fr, 20.05. 23:00 87% 45 km
Ortszeit Niederschlagsmenge Niederschlagsart
Sa, 21.05. 2:00 0.0 l/m2 in 6 Std. -
Fr, 20.05. 20:00 13 l/m2 in 12 Std. Regen
Fr, 20.05. 14:00 0.0 l/m2 in 6 Std. -
Fr, 20.05. 8:00 0.0 l/m2 in 12 Std. -
Fr, 20.05. 2:00 0.0 l/m2 in 6 Std. -
Do, 19.05. 20:00 0.1 l/m2 in 12 Std. Regen
Do, 19.05. 14:00 0.1 l/m2 in 6 Std. Regen
Do, 19.05. 8:00 0.0 l/m2 in 12 Std. -
Ortszeit Niederschlagsmenge Niederschlagsart
Sa, 21.05. 2:00 0.0 l/m2 in 1 Std. -
Sa, 21.05. 1:50 keine Meldung -
Sa, 21.05. 1:40 keine Meldung -
Sa, 21.05. 1:30 0.0 l/m2 in 1 Std. -
Sa, 21.05. 1:20 keine Meldung -
Sa, 21.05. 1:10 keine Meldung -
Sa, 21.05. 1:00 0.0 l/m2 in 1 Std. -
Sa, 21.05. 0:30 0.0 l/m2 in 1 Std. -
Sa, 21.05. 0:00 0.1 l/m2 in 1 Std. -
Fr, 20.05. 23:30 0.0 l/m2 in 1 Std. -
Fr, 20.05. 23:00 0.0 l/m2 in 1 Std. -
Ortszeit Stärke Spitze Richtung
km/h Bft. km/h Grad Sektor
Sa, 21.05. 2:00 7 2 43 300° NW
Fr, 20.05. 20:00 20 4 74 270° W
Fr, 20.05. 14:00 22 4 36 220° SW
Fr, 20.05. 8:00 6 1 20 160° S
Fr, 20.05. 2:00 9 2 26 50° NO
Do, 19.05. 20:00 11 2 40 280° W
Do, 19.05. 14:00 14 3 32 230° SW
Do, 19.05. 8:00 9 2 20 80° O
Ortszeit Stärke Spitze Richtung
km/h Bft. km/h Grad Sektor
Sa, 21.05. 2:00 7 2 29 300° NW
Sa, 21.05. 1:50 7 2 - 300° NW
Sa, 21.05. 1:40 9 2 - 310° NW
Sa, 21.05. 1:30 13 3 28 300° NW
Sa, 21.05. 1:20 13 3 - 300° NW
Sa, 21.05. 1:10 11 2 - 300° NW
Sa, 21.05. 1:00 9 2 22 310° NW
Sa, 21.05. 0:30 11 2 22 300° NW
Sa, 21.05. 0:00 13 3 28 290° W
Fr, 20.05. 23:30 9 2 20 280° W
Fr, 20.05. 23:00 13 3 35 280° W
Ortszeit Untergrenze Bedeckung Gattung
total tief tief mittel hoch
Sa, 21.05. 2:00 510 m 7/8 7/8 - - -
Fr, 20.05. 20:00 420 m 7/8 7/8 - - -
Fr, 20.05. 14:00 1350 m 6/8 1/8 - - -
Fr, 20.05. 8:00 2400 m 7/8 6/8 - - -
Fr, 20.05. 2:00 3600 m 8/8 2/8 - - -
Do, 19.05. 20:00 1500 m 6/8 6/8 - - -
Do, 19.05. 14:00 6600 m 4/8 4/8 - - -
Do, 19.05. 8:00 10500 m 5/8 0/8 - - -
Ortszeit Bedeckungsgrad in Achtel und Wolkenuntergrenze
Sa, 21.05. 2:00 7(510m)
Sa, 21.05. 1:50 7(510m)
Sa, 21.05. 1:40 7
Sa, 21.05. 1:30 7(510m)
Sa, 21.05. 1:20 7(510m)
Sa, 21.05. 1:10 7
Sa, 21.05. 1:00 7(540m)
Sa, 21.05. 0:30 7(540m)
Sa, 21.05. 0:00 5(510m) 6(660m)
Fr, 20.05. 23:30 keine Wolken
Fr, 20.05. 23:00 1(540m)
Ortszeit Luftdruck NN (hPa) Tendenz (hPa in 3 Std.)
Sa, 21.05. 2:00 1023 + 2,1
Fr, 20.05. 20:00 1017 + 1,3
Fr, 20.05. 14:00 1016 - 2,3
Fr, 20.05. 8:00 1020 - 0,3
Fr, 20.05. 2:00 1021 - 0,1
Do, 19.05. 20:00 1018 + 0,3
Do, 19.05. 14:00 1018 - 0,2
Do, 19.05. 8:00 1019 + 0,8
Ortszeit Luftdruck NN (hPa) Tendenz (hPa in 3 Std.)
Sa, 21.05. 2:00 1023 + 2,1
Sa, 21.05. 1:50 1023 keine Meldung
Sa, 21.05. 1:40 1023 keine Meldung
Sa, 21.05. 1:30 1023 + 2,5
Sa, 21.05. 1:20 1023 keine Meldung
Sa, 21.05. 1:10 1023 keine Meldung
Sa, 21.05. 1:00 1023 + 2,9
Sa, 21.05. 0:30 1023 + 3,2
Sa, 21.05. 0:00 1022 + 3,4
Fr, 20.05. 23:30 1022 + 3,4
Fr, 20.05. 23:00 1021 + 3,4
Ortszeit Schneehöhe (cm)
Sa, 21.05. 2:00 0
Fr, 20.05. 20:00 0
Fr, 20.05. 14:00 0
Fr, 20.05. 8:00 0
Fr, 20.05. 2:00 0
Do, 19.05. 20:00 0
Do, 19.05. 14:00 0
Do, 19.05. 8:00 0
Ortszeit Schneehöhe (cm)
Sa, 21.05. 2:00 0
Sa, 21.05. 1:50 0
Sa, 21.05. 1:40 0
Sa, 21.05. 1:30 0
Sa, 21.05. 1:20 0
Sa, 21.05. 1:10 0
Sa, 21.05. 1:00 0
Sa, 21.05. 0:30 0
Sa, 21.05. 0:00 0
Fr, 20.05. 23:30 0
Fr, 20.05. 23:00 0
Link zu dieser Seite / Seite empfehlen

Das Wetter in ...